LIRP/PSA METAR and TAF weather

Enter ICAO airport designator
Station Type Date Time Source
LIRP METAR 2020/07/12 19:45 UTC NOAA

LIRP 121945Z 09009KT CAVOK 26/14 Q1017 NOSIG


Station Type Date Time Source
LIRP Decoded METAR 2020/07/12 19:45 UTC NOAA

Pisa / S. Giusto, Italy (LIRP) 43-41N 010-23E 6M
Jul 12, 2020 - 03:45 PM EDT / 2020.07.12 1945 UTC
Wind: from the E (090 degrees) at 10 MPH (9 KT):0
Visibility: greater than 7 mile(s):0
Temperature: 78 F (26 C)
Dew Point: 57 F (14 C)
Relative Humidity: 47%
Pressure (altimeter): 30.03 in. Hg (1017 hPa)
ob: LIRP 121945Z 09009KT CAVOK 26/14 Q1017 NOSIG
cycle: 20

Station Type Date Time Source
LIRP TAF 2020/07/12 18:22 UTC NOAA

TAF LIRP 121700Z 1218/1318 11010KT 9999 FEW070
TEMPO 1218/1306 08010G20KT

Example: see airport list